Time;durP1;ratioP1;P1;durP2;ratioP2;P2;SDS_P1;SDS_P2;PMS_P1;PMS_P2;Temp;Humidity;BMP_temperature;BMP_pressure;BME280_temperature;BME280_humidity;BME280_pressure;Samples;Min_cycle;Max_cycle;Signal;HPM_P1;HPM_P2
2022/11/09 00:00:47;;;;;;;7.00;1.83;;;12.70;99.90;;;;;;5115010;28;20370;-75
2022/11/09 00:03:12;;;;;;;7.25;1.90;;;12.70;99.90;;;;;;5114959;28;20116;-75
2022/11/09 00:05:38;;;;;;;8.75;2.00;;;12.70;99.90;;;;;;5115037;28;20043;-74
2022/11/09 00:08:08;;;;;;;7.80;1.65;;;12.70;99.90;;;;;;5114363;28;20095;-75
2022/11/09 00:10:34;;;;;;;6.75;1.80;;;12.70;99.90;;;;;;5134026;28;20395;-76
2022/11/09 00:13:00;;;;;;;8.25;1.90;;;12.80;99.90;;;;;;5133502;28;20050;-75
2022/11/09 00:15:27;;;;;;;12.00;2.33;;;12.80;99.90;;;;;;5098329;28;20535;-75
2022/11/09 00:17:52;;;;;;;8.55;2.20;;;12.90;99.90;;;;;;5134946;28;20088;-78
2022/11/09 00:20:18;;;;;;;8.10;1.85;;;12.90;99.90;;;;;;5117458;28;20086;-75
2022/11/09 00:22:48;;;;;;;8.25;1.83;;;12.90;99.90;;;;;;5115756;28;20046;-76
2022/11/09 00:25:14;;;;;;;9.27;2.10;;;13.00;99.90;;;;;;5133791;28;20038;-75
2022/11/09 00:27:40;;;;;;;5.50;1.50;;;12.90;99.90;;;;;;5115959;28;20333;-76
2022/11/09 00:30:06;;;;;;;7.88;1.92;;;12.90;99.90;;;;;;5133709;28;20058;-75
2022/11/09 00:32:32;;;;;;;6.67;1.90;;;13.00;99.90;;;;;;5133745;28;20051;-75
2022/11/09 00:34:58;;;;;;;8.93;1.90;;;13.00;99.90;;;;;;5098517;28;20637;-76
2022/11/09 00:37:23;;;;;;;6.65;1.67;;;13.00;99.90;;;;;;5131774;28;20130;-75
2022/11/09 00:39:49;;;;;;;8.98;2.00;;;13.00;99.90;;;;;;5133118;28;20051;-74
2022/11/09 00:42:15;;;;;;;7.35;1.98;;;13.00;99.90;;;;;;5133090;28;20039;-74
2022/11/09 00:44:41;;;;;;;13.57;2.17;;;13.00;99.90;;;;;;5133091;28;20130;-76
2022/11/09 00:47:06;;;;;;;8.10;2.00;;;13.10;99.90;;;;;;5133598;28;20039;-76
2022/11/09 00:49:32;;;;;;;5.90;1.52;;;13.00;99.90;;;;;;5114907;28;20159;-75
2022/11/09 00:51:58;;;;;;;6.88;1.98;;;13.00;99.90;;;;;;5133720;28;20043;-77
2022/11/09 00:54:23;;;;;;;7.13;1.58;;;13.00;99.90;;;;;;5133049;28;20470;-79
2022/11/09 00:56:49;;;;;;;6.15;1.48;;;13.10;99.90;;;;;;5133564;28;20122;-76
2022/11/09 00:59:15;;;;;;;6.40;1.80;;;13.10;99.90;;;;;;5133235;28;20431;-76
2022/11/09 01:01:41;;;;;;;6.10;1.73;;;13.20;99.90;;;;;;5115469;28;20118;-76
2022/11/09 01:04:06;;;;;;;5.25;1.42;;;13.20;99.90;;;;;;5114804;28;20387;-76
2022/11/09 01:06:32;;;;;;;8.80;1.70;;;13.10;99.90;;;;;;5097962;28;20148;-76
2022/11/09 01:08:58;;;;;;;9.63;1.58;;;13.10;99.90;;;;;;5132721;28;20496;-75
2022/11/09 01:11:24;;;;;;;11.23;1.70;;;13.00;99.90;;;;;;5114725;28;20055;-75
2022/11/09 01:13:50;;;;;;;8.45;1.75;;;13.00;99.90;;;;;;5113971;28;20493;-75
2022/11/09 01:16:19;;;;;;;8.48;1.70;;;12.90;99.90;;;;;;5132632;28;20055;-74
2022/11/09 01:18:45;;;;;;;6.80;1.50;;;12.80;99.90;;;;;;5132403;27;20054;-76
2022/11/09 01:21:13;;;;;;;8.73;1.83;;;12.80;99.90;;;;;;5134823;27;20444;-75
2022/11/09 01:23:41;;;;;;;8.73;2.28;;;12.70;99.90;;;;;;5118042;27;20043;-76
2022/11/09 01:26:10;;;;;;;6.47;1.90;;;12.80;99.90;;;;;;5117840;27;20059;-82
2022/11/09 01:28:36;;;;;;;9.02;1.77;;;12.60;99.90;;;;;;5117603;27;20050;-77
2022/11/09 01:31:08;;;;;;;7.57;1.83;;;12.70;99.90;;;;;;5136057;27;20130;-76
2022/11/09 01:33:35;;;;;;;11.18;1.65;;;12.60;99.90;;;;;;5117748;27;20054;-72
2022/11/09 01:36:06;;;;;;;6.65;1.63;;;12.70;99.90;;;;;;5136604;27;20062;-74
2022/11/09 01:38:32;;;;;;;8.43;1.40;;;12.70;99.90;;;;;;5136652;27;20047;-73
2022/11/09 01:40:58;;;;;;;7.13;1.80;;;12.60;99.90;;;;;;5118920;27;20376;-73
2022/11/09 01:43:24;;;;;;;13.07;1.80;;;12.50;99.90;;;;;;5118138;27;20099;-74
2022/11/09 01:46:04;;;;;;;8.30;1.80;;;12.50;99.90;;;;;;5101695;27;20051;-73
2022/11/09 01:48:51;;;;;;;6.78;1.80;;;12.60;99.90;;;;;;5136236;27;20051;-74
2022/11/09 01:51:38;;;;;;;7.38;1.58;;;12.50;99.90;;;;;;5136494;27;20121;-74
2022/11/09 01:54:10;;;;;;;11.43;1.80;;;12.60;99.90;;;;;;5118579;27;20039;-73
2022/11/09 01:56:37;;;;;;;8.18;1.83;;;12.60;99.90;;;;;;5118366;27;20368;-72
2022/11/09 01:59:07;;;;;;;11.20;1.45;;;12.60;99.90;;;;;;5118333;27;20091;-73
2022/11/09 02:01:34;;;;;;;8.95;1.77;;;12.50;99.90;;;;;;5117869;27;20047;-73
2022/11/09 02:04:21;;;;;;;7.18;1.60;;;12.50;99.90;;;;;;5136112;27;20412;-72
2022/11/09 02:06:49;;;;;;;7.05;1.65;;;12.40;99.90;;;;;;5136773;27;20043;-72
2022/11/09 02:09:19;;;;;;;;;;;12.40;99.90;;;;;;5114740;28;20468;-72
2022/11/09 02:11:45;;;;;;;7.50;1.90;;;12.40;99.90;;;;;;5115476;27;19964;-72
2022/11/09 02:14:12;;;;;;;13.80;1.55;;;12.30;99.90;;;;;;5115305;28;20051;-72
2022/11/09 02:16:39;;;;;;;10.68;1.50;;;12.30;99.90;;;;;;5097136;28;20071;-72
2022/11/09 02:19:05;;;;;;;7.72;1.52;;;12.20;99.90;;;;;;5115245;28;20046;-72
2022/11/09 02:21:31;;;;;;;9.88;1.50;;;12.20;99.90;;;;;;5114067;28;20052;-73
2022/11/09 02:23:57;;;;;;;6.78;1.45;;;12.20;99.90;;;;;;5113899;28;20078;-73
2022/11/09 02:26:42;;;;;;;5.40;1.63;;;12.10;99.90;;;;;;5115054;28;20142;-72
2022/11/09 02:29:11;;;;;;;7.93;1.40;;;12.20;99.90;;;;;;5096976;28;20051;-73
2022/11/09 02:31:42;;;;;;;10.43;1.70;;;12.10;99.90;;;;;;5115386;28;20043;-75
2022/11/09 02:34:16;;;;;;;7.93;1.35;;;12.10;99.90;;;;;;5080550;28;20050;-74
2022/11/09 02:36:42;;;;;;;9.68;1.33;;;12.20;99.90;;;;;;5113987;28;20128;-74
2022/11/09 02:39:09;;;;;;;9.60;1.23;;;12.10;99.90;;;;;;5115546;28;20131;-73
2022/11/09 02:41:42;;;;;;;7.20;1.70;;;12.10;99.90;;;;;;5115663;28;20075;-72
2022/11/09 02:44:08;;;;;;;9.10;1.25;;;12.10;99.90;;;;;;5097651;28;20055;-73
2022/11/09 02:46:36;;;;;;;7.28;1.33;;;12.10;99.90;;;;;;5114902;28;20044;-73
2022/11/09 02:49:02;;;;;;;12.90;1.70;;;12.10;99.90;;;;;;5114349;28;20051;-72
2022/11/09 02:51:28;;;;;;;6.55;1.27;;;12.20;99.90;;;;;;5114635;28;20059;-72
2022/11/09 02:53:54;;;;;;;9.68;2.10;;;12.20;99.90;;;;;;5113712;28;20039;-73
2022/11/09 02:56:20;;;;;;;7.88;1.20;;;12.10;99.90;;;;;;5114683;28;20048;-74
2022/11/09 02:58:45;;;;;;;9.25;1.35;;;12.10;99.90;;;;;;5114106;28;20092;-73
2022/11/09 03:01:11;;;;;;;11.02;1.42;;;12.20;99.90;;;;;;5114138;28;20486;-73
2022/11/09 03:03:37;;;;;;;9.05;1.25;;;12.20;99.90;;;;;;5113115;28;20166;-73
2022/11/09 03:06:03;;;;;;;8.63;1.10;;;12.10;99.90;;;;;;5112935;28;20043;-74
2022/11/09 03:08:29;;;;;;;10.43;1.20;;;12.00;99.90;;;;;;5095746;28;20066;-73
2022/11/09 03:10:55;;;;;;;10.77;1.50;;;12.00;99.90;;;;;;5114362;28;20051;-73
2022/11/09 03:13:20;;;;;;;12.63;1.65;;;11.90;99.90;;;;;;5114157;28;20062;-74
2022/11/09 03:15:46;;;;;;;7.93;1.27;;;11.90;99.90;;;;;;5114935;27;20046;-74
2022/11/09 03:18:12;;;;;;;8.63;1.40;;;11.90;99.90;;;;;;5114700;28;20062;-73
2022/11/09 03:20:37;;;;;;;7.85;1.48;;;11.90;99.90;;;;;;5112920;28;20047;-72
2022/11/09 03:23:03;;;;;;;12.60;2.40;;;11.80;99.90;;;;;;5079843;28;20047;-72
2022/11/09 03:25:29;;;;;;;13.02;1.88;;;11.70;99.90;;;;;;5113706;28;20054;-72
2022/11/09 03:28:03;;;;;;;9.55;1.33;;;11.70;99.90;;;;;;5078963;28;20394;-73
2022/11/09 03:30:29;;;;;;;11.75;1.40;;;11.80;99.90;;;;;;5113922;28;20127;-73
2022/11/09 03:32:59;;;;;;;10.05;1.65;;;11.70;99.90;;;;;;5113882;28;20040;-72
2022/11/09 03:35:25;;;;;;;9.73;1.38;;;11.70;99.90;;;;;;5114026;28;20122;-73
2022/11/09 03:37:51;;;;;;;4.93;1.10;;;11.70;99.90;;;;;;5114150;28;20098;-72
2022/11/09 03:40:17;;;;;;;9.73;1.75;;;11.70;99.90;;;;;;5112303;28;20468;-72
2022/11/09 03:42:44;;;;;;;9.20;1.60;;;11.70;99.90;;;;;;5111974;28;20172;-72
2022/11/09 03:45:11;;;;;;;7.38;1.50;;;11.80;99.90;;;;;;5114046;28;20040;-74
2022/11/09 03:47:40;;;;;;;10.23;1.58;;;11.80;99.90;;;;;;5113443;28;20141;-73
2022/11/09 03:50:06;;;;;;;6.93;1.30;;;11.80;99.90;;;;;;5113500;28;20051;-72
2022/11/09 03:52:32;;;;;;;9.85;1.50;;;11.80;99.90;;;;;;5112422;28;20052;-72
2022/11/09 03:54:57;;;;;;;6.25;1.50;;;11.80;99.90;;;;;;5113459;28;20063;-72
2022/11/09 03:57:23;;;;;;;12.00;1.50;;;11.90;99.90;;;;;;5096166;28;20100;-75
2022/11/09 03:59:49;;;;;;;14.95;1.85;;;11.90;99.90;;;;;;5112072;28;20075;-72
2022/11/09 04:02:14;;;;;;;8.93;1.40;;;12.00;99.90;;;;;;5112179;28;20047;-75
2022/11/09 04:04:40;;;;;;;9.77;1.33;;;11.90;99.90;;;;;;5129204;27;20039;-75
2022/11/09 04:07:06;;;;;;;8.00;1.45;;;11.90;99.90;;;;;;5129055;28;20040;-72
2022/11/09 04:09:31;;;;;;;9.95;1.50;;;11.90;99.90;;;;;;5111366;28;20055;-75
2022/11/09 04:11:57;;;;;;;12.30;1.75;;;12.00;99.90;;;;;;5113254;28;20074;-73
2022/11/09 04:14:23;;;;;;;9.73;2.17;;;11.90;99.90;;;;;;5112600;28;20426;-73
2022/11/09 04:16:48;;;;;;;12.00;1.70;;;12.10;99.90;;;;;;5112367;28;20433;-74
2022/11/09 04:19:14;;;;;;;6.05;1.60;;;12.10;99.90;;;;;;5112432;28;20126;-73
2022/11/09 04:21:40;;;;;;;5.45;1.40;;;12.10;99.90;;;;;;5111955;28;20059;-72
2022/11/09 04:24:06;;;;;;;8.70;1.50;;;12.00;99.90;;;;;;5113559;28;20044;-73
2022/11/09 04:26:31;;;;;;;8.95;1.65;;;12.10;99.90;;;;;;5112814;28;20055;-72
2022/11/09 04:28:57;;;;;;;7.93;1.60;;;12.00;99.90;;;;;;5111888;28;20192;-71
2022/11/09 04:31:23;;;;;;;10.98;1.58;;;12.00;99.90;;;;;;5095168;28;20185;-71
2022/11/09 04:33:50;;;;;;;7.13;1.77;;;12.00;99.90;;;;;;5112642;28;20048;-72
2022/11/09 04:36:15;;;;;;;11.52;1.70;;;12.10;99.90;;;;;;5113038;28;20343;-72
2022/11/09 04:38:41;;;;;;;10.98;1.40;;;12.00;99.90;;;;;;5095873;28;20146;-72
2022/11/09 04:41:07;;;;;;;5.63;1.45;;;12.00;99.90;;;;;;5111879;28;20411;-73
2022/11/09 04:43:33;;;;;;;9.20;1.60;;;12.10;99.90;;;;;;5113004;28;20391;-71
2022/11/09 04:46:02;;;;;;;6.47;1.40;;;12.10;99.90;;;;;;5095300;28;20155;-73
2022/11/09 04:48:29;;;;;;;6.55;1.40;;;12.10;99.90;;;;;;5112698;28;20118;-73
2022/11/09 04:50:59;;;;;;;;;;;12.00;99.90;;;;;;5113072;28;20359;-71
2022/11/09 04:53:25;;;;;;;10.90;1.60;;;12.10;99.90;;;;;;5113862;28;19923;-74
2022/11/09 04:55:51;;;;;;;11.63;1.70;;;12.00;99.90;;;;;;5099559;28;20530;-72
2022/11/09 04:58:16;;;;;;;7.40;1.58;;;12.00;99.90;;;;;;5099327;28;20425;-73
2022/11/09 05:00:42;;;;;;;13.52;1.73;;;12.00;99.90;;;;;;5116339;28;20490;-74
2022/11/09 05:03:08;;;;;;;7.03;1.60;;;11.90;99.90;;;;;;5117418;28;20043;-73
2022/11/09 05:05:35;;;;;;;5.95;1.23;;;11.90;99.90;;;;;;5116508;28;20050;-73
2022/11/09 05:08:02;;;;;;;6.28;1.25;;;12.50;99.90;;;;;;5117067;27;20184;-73
2022/11/09 05:10:28;;;;;;;8.02;1.30;;;11.80;99.90;;;;;;5119539;27;20127;-73
2022/11/09 05:12:59;;;;;;;12.57;1.58;;;11.80;99.90;;;;;;5118993;27;20385;-75
2022/11/09 05:15:25;;;;;;;11.00;1.90;;;11.80;99.90;;;;;;5137259;27;20465;-74
2022/11/09 05:17:50;;;;;;;6.23;1.50;;;11.60;99.90;;;;;;5102349;27;20110;-75
2022/11/09 05:20:16;;;;;;;10.93;1.30;;;11.70;99.90;;;;;;5101934;27;20047;-73
2022/11/09 05:25:26;;;;;;;9.63;1.75;;;11.80;99.90;;;;;;5137106;27;20134;-73
2022/11/09 05:27:52;;;;;;;8.13;1.70;;;11.70;99.90;;;;;;5137457;27;20078;-74
2022/11/09 05:30:19;;;;;;;6.50;1.50;;;12.00;99.90;;;;;;5120593;27;20043;-73
2022/11/09 05:32:44;;;;;;;7.45;1.45;;;11.70;99.90;;;;;;5138786;27;20047;-74
2022/11/09 05:35:10;;;;;;;7.05;1.55;;;11.60;99.90;;;;;;5120238;27;20046;-72
2022/11/09 05:37:39;;;;;;;7.82;1.70;;;11.60;99.90;;;;;;5139972;27;20039;-72
2022/11/09 05:40:08;;;;;;;7.88;1.40;;;11.60;99.90;;;;;;5124806;27;20054;-73
2022/11/09 05:42:37;;;;;;;13.93;2.13;;;11.60;99.90;;;;;;5126707;27;20078;-72
2022/11/09 05:45:03;;;;;;;5.60;1.35;;;11.60;99.90;;;;;;5141657;27;20039;-73
2022/11/09 05:47:28;;;;;;;12.57;2.20;;;11.60;99.90;;;;;;5121727;27;20078;-74
2022/11/09 05:49:54;;;;;;;9.77;1.58;;;11.50;99.90;;;;;;5139147;27;20452;-72
2022/11/09 05:52:20;;;;;;;7.30;1.42;;;11.50;99.90;;;;;;5137723;27;20050;-73
2022/11/09 05:54:45;;;;;;;10.60;1.85;;;11.40;99.90;;;;;;5084542;27;20383;-73
2022/11/09 05:57:11;;;;;;;10.30;1.75;;;11.40;99.90;;;;;;5118317;27;20038;-73
2022/11/09 05:59:37;;;;;;;7.43;1.30;;;11.40;99.90;;;;;;5101817;27;20423;-73
2022/11/09 06:02:03;;;;;;;10.35;1.35;;;11.40;99.90;;;;;;5118338;27;20050;-72
2022/11/09 06:04:28;;;;;;;7.47;1.38;;;11.40;99.90;;;;;;5136478;27;20046;-73
2022/11/09 06:06:54;;;;;;;8.85;1.60;;;11.40;99.90;;;;;;5117790;27;20127;-74
2022/11/09 06:09:20;;;;;;;6.78;1.17;;;11.40;99.90;;;;;;5100911;27;20174;-77
2022/11/09 06:11:45;;;;;;;10.50;1.50;;;11.30;99.90;;;;;;5136445;27;20475;-74
2022/11/09 06:14:11;;;;;;;10.15;1.02;;;11.40;99.90;;;;;;5118394;27;20043;-75
2022/11/09 06:16:37;;;;;;;13.48;1.60;;;11.30;99.90;;;;;;5118043;27;20046;-75
2022/11/09 06:19:03;;;;;;;10.82;1.30;;;11.30;99.90;;;;;;5118028;27;20066;-72
2022/11/09 06:21:28;;;;;;;6.10;1.10;;;11.40;99.90;;;;;;5117677;27;20051;-74
2022/11/09 06:23:54;;;;;;;10.75;1.35;;;11.30;99.90;;;;;;5117815;27;20047;-73
2022/11/09 06:26:20;;;;;;;10.43;1.40;;;11.20;99.90;;;;;;5100470;27;20463;-74
2022/11/09 06:28:45;;;;;;;9.05;1.30;;;11.20;99.90;;;;;;5100491;27;20104;-73
2022/11/09 06:31:14;;;;;;;6.57;1.08;;;11.20;99.90;;;;;;5100615;27;20046;-73
2022/11/09 06:33:40;;;;;;;9.13;1.38;;;11.20;99.90;;;;;;5135494;27;20087;-74
2022/11/09 06:36:06;;;;;;;12.02;1.42;;;11.10;99.90;;;;;;5135505;27;20215;-73
2022/11/09 06:38:32;;;;;;;12.13;1.60;;;11.20;99.90;;;;;;5117493;27;20085;-74
2022/11/09 06:40:59;;;;;;;6.57;1.33;;;11.10;99.90;;;;;;5135409;27;20495;-72
2022/11/09 06:43:26;;;;;;;12.18;1.30;;;11.00;99.90;;;;;;5135726;27;20047;-74
2022/11/09 06:45:51;;;;;;;6.43;1.10;;;11.00;99.90;;;;;;5117702;27;20382;-73
2022/11/09 06:48:18;;;;;;;10.75;1.23;;;11.00;99.90;;;;;;5136212;27;20039;-74
2022/11/09 06:50:44;;;;;;;8.70;1.52;;;11.20;99.90;;;;;;5134983;27;20047;-74
2022/11/09 06:53:12;;;;;;;11.48;1.58;;;11.00;99.90;;;;;;5117141;27;20049;-73
2022/11/09 06:55:38;;;;;;;10.60;1.58;;;11.00;99.90;;;;;;5100158;27;20047;-75
2022/11/09 06:58:10;;;;;;;12.10;1.67;;;11.00;99.90;;;;;;5135377;27;20039;-74
2022/11/09 07:00:36;;;;;;;9.75;1.33;;;11.00;99.90;;;;;;5118304;27;20146;-74
2022/11/09 07:03:02;;;;;;;10.43;1.30;;;10.90;99.90;;;;;;5116962;27;20051;-72
2022/11/09 07:05:28;;;;;;;10.47;1.60;;;10.90;99.90;;;;;;5100445;27;20074;-73
2022/11/09 07:07:55;;;;;;;9.93;1.02;;;10.90;99.90;;;;;;5117223;27;20285;-72
2022/11/09 07:10:21;;;;;;;8.27;1.65;;;10.90;99.90;;;;;;5135683;27;20058;-73
2022/11/09 07:12:46;;;;;;;8.18;1.45;;;10.90;99.90;;;;;;5099959;27;20043;-74
2022/11/09 07:15:12;;;;;;;11.95;1.48;;;11.00;99.90;;;;;;5116707;27;20164;-72
2022/11/09 07:17:39;;;;;;;12.75;1.17;;;10.90;99.90;;;;;;5116575;27;20039;-74
2022/11/09 07:20:09;;;;;;;9.47;1.43;;;11.00;99.90;;;;;;5135341;27;20154;-72
2022/11/09 07:22:38;;;;;;;7.53;1.15;;;11.00;99.90;;;;;;5135618;27;20053;-73
2022/11/09 07:25:06;;;;;;;9.02;1.17;;;11.00;99.90;;;;;;5134902;27;20088;-74
2022/11/09 07:27:32;;;;;;;9.15;1.25;;;11.00;99.90;;;;;;5116326;27;20046;-73
2022/11/09 07:29:57;;;;;;;12.73;1.83;;;11.10;99.90;;;;;;5134649;27;20050;-73
2022/11/09 07:32:23;;;;;;;9.85;1.33;;;11.10;99.90;;;;;;5116878;27;20050;-75
2022/11/09 07:34:49;;;;;;;10.73;1.55;;;11.20;99.90;;;;;;5116038;27;20043;-74
2022/11/09 07:37:14;;;;;;;8.65;1.50;;;11.20;99.90;;;;;;5134617;27;20047;-75
2022/11/09 07:39:40;;;;;;;9.18;1.40;;;11.30;99.90;;;;;;5135673;27;20054;-74
2022/11/09 07:42:06;;;;;;;14.60;1.65;;;11.30;99.90;;;;;;5135155;27;20218;-74
2022/11/09 07:44:32;;;;;;;15.38;2.10;;;11.40;99.90;;;;;;5134803;27;20077;-73
2022/11/09 07:46:58;;;;;;;14.03;2.03;;;11.40;99.90;;;;;;5134994;27;20109;-74
2022/11/09 07:49:24;;;;;;;12.25;2.20;;;11.40;99.90;;;;;;5135416;27;20764;-75
2022/11/09 07:51:50;;;;;;;10.02;1.70;;;11.50;99.90;;;;;;5116305;27;20088;-74
2022/11/09 07:54:15;;;;;;;8.05;1.60;;;11.50;99.90;;;;;;5116872;27;20050;-75
2022/11/09 07:56:41;;;;;;;9.70;1.65;;;11.60;99.90;;;;;;5134998;27;20043;-74
2022/11/09 07:59:07;;;;;;;17.15;1.70;;;11.50;99.90;;;;;;5134510;27;20074;-74
2022/11/09 08:01:32;;;;;;;12.02;1.40;;;11.60;99.90;;;;;;5134612;27;20122;-75
2022/11/09 08:03:58;;;;;;;10.65;1.50;;;11.50;99.90;;;;;;5116403;27;20047;-75
2022/11/09 08:06:26;;;;;;;12.07;1.83;;;11.60;99.90;;;;;;5135570;27;20069;-75
2022/11/09 08:08:56;;;;;;;15.02;1.70;;;11.60;99.90;;;;;;5135374;28;20059;-75
2022/11/09 08:11:22;;;;;;;18.08;1.85;;;11.60;99.90;;;;;;5135064;28;20062;-75
2022/11/09 08:13:48;;;;;;;11.55;1.75;;;11.60;99.90;;;;;;5134486;28;20455;-73
2022/11/09 08:16:14;;;;;;;12.50;1.70;;;11.70;99.90;;;;;;5116142;28;20103;-74
2022/11/09 08:18:40;;;;;;;15.27;1.80;;;11.70;99.90;;;;;;5135144;28;20047;-73
2022/11/09 08:21:05;;;;;;;15.60;1.77;;;11.80;99.90;;;;;;5134950;28;20047;-74
2022/11/09 08:23:31;;;;;;;14.05;1.92;;;11.80;99.90;;;;;;5116944;28;20051;-74
2022/11/09 08:26:02;;;;;;;12.18;1.33;;;11.80;99.90;;;;;;5100011;28;20043;-72
2022/11/09 08:28:28;;;;;;;9.90;1.95;;;11.80;99.90;;;;;;5136592;27;20043;-74
2022/11/09 08:31:00;;;;;;;11.38;1.65;;;11.80;99.90;;;;;;5122574;27;20345;-74
2022/11/09 08:33:28;;;;;;;12.35;1.70;;;12.00;99.90;;;;;;5140092;27;20075;-74
2022/11/09 08:35:54;;;;;;;15.23;1.88;;;12.00;99.90;;;;;;5120470;27;20047;-74
2022/11/09 08:38:20;;;;;;;11.82;1.95;;;12.10;99.90;;;;;;5121031;27;20080;-75
2022/11/09 08:40:45;;;;;;;13.93;2.55;;;12.10;99.90;;;;;;5139312;27;20039;-73
2022/11/09 08:43:11;;;;;;;8.13;1.33;;;12.20;99.90;;;;;;5138730;27;20128;-74
2022/11/09 08:45:39;;;;;;;11.52;1.67;;;12.30;99.90;;;;;;5139963;27;20527;-73
2022/11/09 08:48:07;;;;;;;11.15;2.63;;;12.30;99.90;;;;;;5120382;27;20043;-74
2022/11/09 08:50:34;;;;;;;12.65;1.95;;;12.30;99.90;;;;;;5120473;27;20375;-73
2022/11/09 08:53:01;;;;;;;11.15;1.77;;;12.30;99.90;;;;;;5119488;27;20054;-73
2022/11/09 08:55:27;;;;;;;11.82;1.90;;;12.40;99.90;;;;;;5118847;27;20081;-72
2022/11/09 08:57:55;;;;;;;10.73;1.45;;;12.40;99.90;;;;;;5137928;27;20083;-73
2022/11/09 09:00:21;;;;;;;10.43;1.50;;;12.40;99.90;;;;;;5119981;27;20100;-75
2022/11/09 09:02:47;;;;;;;7.72;1.33;;;12.40;99.90;;;;;;5119657;27;20039;-74
2022/11/09 09:05:12;;;;;;;13.15;1.52;;;12.50;99.90;;;;;;5120644;27;20046;-74
2022/11/09 09:07:38;;;;;;;11.48;1.50;;;12.60;99.90;;;;;;5138973;27;20092;-76
2022/11/09 09:10:04;;;;;;;9.82;1.27;;;12.70;99.90;;;;;;5140175;27;20086;-74
2022/11/09 09:12:31;;;;;;;12.38;2.00;;;12.80;99.90;;;;;;5123060;27;20054;-76
2022/11/09 09:14:56;;;;;;;12.40;1.40;;;12.80;99.90;;;;;;5124264;27;20065;-73
2022/11/09 09:17:22;;;;;;;10.45;1.40;;;12.80;99.90;;;;;;5105852;27;20104;-75
2022/11/09 09:19:48;;;;;;;10.45;1.27;;;12.90;99.90;;;;;;5104448;27;20039;-74
2022/11/09 09:22:15;;;;;;;11.73;1.83;;;12.90;99.90;;;;;;5139363;27;20043;-75
2022/11/09 09:24:40;;;;;;;12.70;1.90;;;13.00;99.90;;;;;;5119844;27;20206;-75
2022/11/09 09:27:06;;;;;;;10.40;1.50;;;13.10;99.90;;;;;;5136401;27;20084;-75
2022/11/09 09:29:32;;;;;;;9.95;1.65;;;13.20;99.90;;;;;;5101762;27;20038;-74
2022/11/09 09:31:57;;;;;;;11.70;1.60;;;13.20;99.90;;;;;;5136718;27;20050;-75
2022/11/09 09:34:23;;;;;;;12.30;1.77;;;13.20;99.90;;;;;;5118249;27;20031;-76
2022/11/09 09:36:52;;;;;;;11.55;1.38;;;13.10;99.90;;;;;;5119181;27;20467;-75
2022/11/09 09:39:18;;;;;;;12.15;2.75;;;13.30;99.90;;;;;;5118235;27;20043;-74
2022/11/09 09:41:59;;;;;;;8.93;1.80;;;13.30;99.90;;;;;;5100652;27;20062;-74
2022/11/09 09:44:42;;;;;;;11.13;1.70;;;13.30;99.90;;;;;;5136848;27;20039;-73
2022/11/09 09:47:12;;;;;;;11.73;1.67;;;13.30;99.90;;;;;;5118113;27;20172;-76
2022/11/09 09:49:46;;;;;;;15.18;2.20;;;13.30;99.90;;;;;;5136794;27;20035;-74
2022/11/09 09:52:31;;;;;;;8.63;1.33;;;13.30;99.90;;;;;;5102535;27;20131;-75
2022/11/09 09:55:00;;;;;;;10.07;1.55;;;13.40;99.90;;;;;;5136793;27;20039;-74
2022/11/09 09:57:28;;;;;;;8.93;2.00;;;13.40;99.90;;;;;;5118495;27;20051;-75
2022/11/09 09:59:59;;;;;;;10.52;1.88;;;13.50;99.90;;;;;;5136029;27;20047;-75
2022/11/09 10:02:28;;;;;;;11.10;1.40;;;13.50;99.90;;;;;;5118712;27;20430;-75
2022/11/09 10:04:56;;;;;;;11.85;2.20;;;13.60;99.90;;;;;;5117704;27;20135;-75
2022/11/09 10:07:38;;;;;;;12.27;1.92;;;13.60;99.90;;;;;;5117618;27;20039;-75
2022/11/09 10:10:25;;;;;;;15.63;2.30;;;13.70;99.90;;;;;;5136019;27;20108;-74
2022/11/09 10:13:19;;;;;;;10.02;2.13;;;13.70;99.90;;;;;;5136749;27;20124;-75
2022/11/09 10:16:03;;;;;;;11.30;2.03;;;13.80;99.90;;;;;;5117444;27;20038;-74
2022/11/09 10:18:44;;;;;;;9.35;1.88;;;13.70;99.90;;;;;;5117555;27;20050;-74
2022/11/09 10:21:37;;;;;;;13.95;2.30;;;13.60;99.90;;;;;;5135770;27;20138;-75
2022/11/09 10:24:12;;;;;;;9.88;2.47;;;13.60;99.90;;;;;;5118349;27;20400;-74
2022/11/09 10:26:41;;;;;;;11.50;1.73;;;13.50;99.90;;;;;;5136183;27;20039;-74
2022/11/09 10:29:19;;;;;;;11.48;2.15;;;13.50;99.90;;;;;;5135704;27;20085;-75
2022/11/09 10:31:47;;;;;;;14.88;2.40;;;13.60;99.90;;;;;;5100203;27;20043;-74
2022/11/09 10:34:19;;;;;;;15.35;2.80;;;13.60;99.90;;;;;;5135477;27;20035;-72
2022/11/09 10:36:55;;;;;;;14.95;2.65;;;13.70;99.90;;;;;;5135482;27;20039;-73
2022/11/09 10:39:23;;;;;;;12.60;2.03;;;13.70;99.90;;;;;;5135342;27;20126;-74
2022/11/09 10:41:49;;;;;;;10.80;2.15;;;13.80;99.90;;;;;;5135355;27;20121;-73
2022/11/09 10:44:17;;;;;;;12.63;2.05;;;13.90;99.90;;;;;;5116843;27;20074;-75
2022/11/09 10:47:05;;;;;;;10.73;2.17;;;14.00;99.90;;;;;;5100375;27;20054;-74
2022/11/09 10:49:32;;;;;;;14.27;1.95;;;14.00;99.90;;;;;;5135278;27;20049;-74
2022/11/09 10:51:58;;;;;;;;;;;13.90;99.90;;;;;;5135724;27;20112;-75
2022/11/09 10:54:35;;;;;;;10.25;1.35;;;13.90;99.90;;;;;;5135834;27;20246;-73
2022/11/09 10:57:10;;;;;;;12.50;1.80;;;13.80;99.90;;;;;;5135868;27;20035;-74
2022/11/09 10:59:39;;;;;;;11.52;1.40;;;13.70;99.90;;;;;;5135424;27;20538;-74
2022/11/09 11:02:23;;;;;;;10.38;1.77;;;13.80;99.90;;;;;;5135001;27;20043;-73
2022/11/09 11:04:58;;;;;;;14.70;1.60;;;13.70;99.90;;;;;;5099830;27;20035;-72
2022/11/09 11:07:24;;;;;;;9.23;1.30;;;13.70;99.90;;;;;;5134957;27;20043;-75
2022/11/09 11:09:50;;;;;;;13.02;1.85;;;13.80;99.90;;;;;;5116493;27;20050;-74
2022/11/09 11:12:19;;;;;;;7.93;1.17;;;13.90;99.90;;;;;;5099960;27;20425;-74
2022/11/09 11:14:45;;;;;;;12.52;1.25;;;13.90;99.90;;;;;;5134864;27;20039;-75
2022/11/09 11:17:23;;;;;;;12.45;1.88;;;14.00;99.90;;;;;;5134626;27;20348;-74
2022/11/09 11:19:48;;;;;;;25.17;3.38;;;14.00;99.90;;;;;;5116309;27;20104;-73
2022/11/09 11:22:21;;;;;;;14.50;1.65;;;14.00;99.90;;;;;;5116265;27;20043;-75
2022/11/09 11:25:01;;;;;;;10.50;1.45;;;14.10;99.90;;;;;;5116854;27;20047;-73
2022/11/09 11:27:40;;;;;;;13.57;1.75;;;14.10;99.90;;;;;;5134618;27;20042;-76
2022/11/09 11:30:10;;;;;;;10.80;2.03;;;14.10;99.90;;;;;;5099498;27;20043;-72
2022/11/09 11:32:36;;;;;;;12.55;1.60;;;14.10;99.90;;;;;;5116063;27;20088;-74
2022/11/09 11:35:13;;;;;;;11.55;1.92;;;14.00;99.90;;;;;;5133969;27;20039;-79
2022/11/09 11:37:54;;;;;;;17.58;1.60;;;14.00;99.90;;;;;;5134920;27;20528;-74
2022/11/09 11:40:37;;;;;;;12.30;1.60;;;13.90;99.90;;;;;;5116982;27;20078;-73
2022/11/09 11:43:06;;;;;;;15.27;1.85;;;13.80;99.90;;;;;;5116145;27;20043;-77
2022/11/09 11:45:40;;;;;;;19.58;1.80;;;13.90;99.90;;;;;;5134746;27;20046;-73
2022/11/09 11:48:37;;;;;;;9.70;1.67;;;14.00;99.90;;;;;;5134179;27;20078;-73
2022/11/09 11:51:16;;;;;;;10.93;1.58;;;14.00;99.90;;;;;;5115878;27;20039;-77
2022/11/09 11:53:48;;;;;;;13.30;2.30;;;14.10;99.90;;;;;;5134946;27;20122;-74
2022/11/09 11:56:27;;;;;;;6.18;1.30;;;14.10;99.90;;;;;;5134315;27;20183;-72
2022/11/09 11:59:25;;;;;;;11.10;1.63;;;14.10;99.90;;;;;;5134429;27;20481;-74
2022/11/09 12:02:00;;;;;;;10.13;1.40;;;14.10;99.90;;;;;;5077938;27;20479;-72
2022/11/09 12:05:03;;;;;;;11.15;1.40;;;14.00;99.90;;;;;;5135106;27;20043;-75
2022/11/09 12:07:55;;;;;;;16.23;2.00;;;13.90;99.90;;;;;;5136318;27;20046;-75
2022/11/09 12:10:41;;;;;;;9.38;1.52;;;13.90;99.90;;;;;;5118311;28;20051;-74
2022/11/09 12:13:37;;;;;;;12.80;1.70;;;14.00;99.90;;;;;;5138032;28;20043;-74
2022/11/09 12:16:12;;;;;;;9.23;1.25;;;14.10;99.90;;;;;;5119026;28;20099;-76
2022/11/09 12:18:53;;;;;;;10.88;1.40;;;14.10;99.90;;;;;;5118748;28;20300;-73
2022/11/09 12:21:25;;;;;;;13.35;1.40;;;14.40;99.90;;;;;;5135706;28;20035;-72
2022/11/09 12:23:54;;;;;;;12.02;1.73;;;14.60;99.90;;;;;;5134987;28;20035;-74
2022/11/09 12:26:32;;;;;;;9.38;1.30;;;14.70;99.90;;;;;;5116213;28;20050;-73
2022/11/09 12:29:20;;;;;;;9.63;1.45;;;14.70;99.90;;;;;;5099041;28;20364;-74
2022/11/09 12:32:10;;;;;;;10.55;1.58;;;14.80;99.90;;;;;;5134044;28;20043;-75
2022/11/09 12:34:46;;;;;;;16.10;1.83;;;14.60;99.90;;;;;;5133974;28;20038;-74
2022/11/09 12:37:16;;;;;;;8.73;1.63;;;14.60;99.90;;;;;;5133826;28;20055;-75
2022/11/09 12:39:46;;;;;;;9.98;1.63;;;14.60;99.90;;;;;;5098476;28;20087;-74
2022/11/09 12:42:44;;;;;;;12.77;1.83;;;14.60;99.90;;;;;;5115513;28;20087;-75
2022/11/09 12:45:31;;;;;;;8.40;1.60;;;14.60;99.90;;;;;;5116213;28;20035;-73
2022/11/09 12:48:03;;;;;;;9.23;1.40;;;14.50;99.90;;;;;;5133844;28;20043;-74
2022/11/09 12:50:31;;;;;;;6.43;1.30;;;14.40;99.90;;;;;;5115042;28;20080;-75
2022/11/09 12:52:58;;;;;;;8.93;2.00;;;14.30;99.90;;;;;;5115064;28;20553;-78
2022/11/09 12:55:40;;;;;;;12.55;2.00;;;14.30;99.90;;;;;;5115507;28;20085;-74